Airfield :
LOGIN :

Register | Disclaimer

   EN    FR    IT 

 










Legend :    VFR   Marginal VFR   IFR   Intensive IFR   Very Intensive IFR
Visi :
Ceiling :
>= 8 km
>= 3000ft
5 to 8 km
1000 to 3000 ft
1500m to 5 km
500 to 1000 ft
800 to 1500m
200 to 500 ft
< 800m
< 200 ft
Symbols :   Thunderstorms  Fog  Heavy snow  Heavy precipitations  Wind > 20 kt
SIGMETs :     Misc.  Thunderstorms  Icing  Turbulence  Mountain Waves  Volcanic Ashes






- Airport Elevation : 856 ft
- IATA code : VGO


LEVX - Vigo Peinador

CURRENT METAR :
  • 051430Z 30006KT 250V340 9999 FEW024 SCT040 08/05 Q1009 RERA TEMPO 3000 SHRA BKN025TCU

EXPIRED METARs :
  • 051403Z VRB02KT 8000 1000SE RA BCFG SCT022 BKN030 08/06 Q1009 TEMPO 1500 SHRA BKN025TCU
  • 051330Z 35003KT 290V100 9999 1000SE BCFG FEW015 08/06 Q1009 TEMPO 1500 SHRA BKN025TCU
  • 051300Z 02005KT 330V070 8000 1000SE -RA BCFG FEW013 SCT018 BKN025 07/06 Q1009 TEMPO 1500 SHRA BKN025TCU
  • 051230Z 35004KT 8000 1000SE -RA BCFG BKN026 BKN040 07/05 Q1009 TEMPO 1500 SHRA BKN025TCU
  • 051200Z 35011KT 300V030 8000 1000SE -RA BCFG BKN024 BKN040 07/05 Q1009 TEMPO 1500 SHRA BKN025TCU

TAF AMD TAF LEVX
Valid from the 05 at 12:00 until the 06 at 12:00 UTC


051200Z 0512/0612 36008KT 9999 FEW015 BKN025 TX07/0612Z TN05/0603Z
TEMPO 0512/0516 3000 RA SHRA SCT030TCU
PROB30
TEMPO 0512/0514 35015G25KT 1500 TSRAGS BCFG SCT020CB
PROB30 0516/0610 3000 -RA SHRA SCT030TCU
TEMPO 0610/0612 3000 RA BKN010



MET'MAP, your aeronautical weather chart ! - Copyright ORBIFLY December 2007 - Disclaimer

ORBIFLY MET'MAP TEAM :

Programming & Development : Alexandra Zaïnal
Concept & original design : Baudouin d'Aumeries
Assistance for programming : Marc-Olivier Méhu
Technical & hardware support : Manuel Goepfert

Contact : metmap@orbifly.com




SOURCES & CREDITS :

   NOAA